Terminal Aerodrome Forecast
Issued by NWS

Home | Current Version | Previous Version | Text Only | Print | Product List | Glossary On
Versions: 1 2 3 4 5 6 7 8 9 10 11 12 13 14 15 16 17 18
000
FTUS42 KJAX 292323
TAFVQQ
TAF
KVQQ 292323Z 3000/3024 07008KT P6SM FEW030 BKN070
     FM300700 00000KT P6SM SCT020 SCT100
     FM300900 00000KT 3SM BR SCT020 BKN100
     FM301230 06003KT P6SM SCT025 BKN100
     FM301500 08007KT P6SM VCSH BKN040
     FM301800 09009G17KT P6SM BKN050 BKN250=

USA.gov is the U.S. government's official web portal to all federal, state and local government web resources and services.